Time,TemperatureF,DewpointF,PressureIn,WindDirection,WindDirectionDegrees,WindSpeedMPH,WindSpeedGustMPH,Humidity,HourlyPrecipIn,Conditions,Clouds,dailyrainin,SoftwareType,DateUTC
2013-06-07 00:04:00,75.0,71.9,29.55,WSW,247,13.0,-999.0,90,-99.99,,,0.00,Acu-Link.com,2013-06-07 04:04:00,
2013-06-07 00:19:00,75.2,72.1,29.55,West,270,6.8,-999.0,90,-99.99,,,0.00,Acu-Link.com,2013-06-07 04:19:00,
2013-06-07 00:34:00,75.2,72.1,29.55,SW,225,7.3,-999.0,90,-99.99,,,0.00,Acu-Link.com,2013-06-07 04:34:00,
2013-06-07 00:49:00,75.2,72.1,29.55,SW,225,8.9,-999.0,90,-99.99,,,0.00,Acu-Link.com,2013-06-07 04:49:00,
2013-06-07 01:05:00,75.2,72.1,29.56,WSW,247,6.3,-999.0,90,-99.99,,,0.00,Acu-Link.com,2013-06-07 05:05:00,
2013-06-07 01:20:00,74.3,71.5,29.56,West,270,7.3,-999.0,91,-99.99,,,0.00,Acu-Link.com,2013-06-07 05:20:00,
2013-06-07 01:35:00,74.3,71.5,29.56,West,270,8.3,-999.0,91,-99.99,,,0.00,Acu-Link.com,2013-06-07 05:35:00,
2013-06-07 02:06:00,73.9,71.4,29.55,West,270,4.2,-999.0,92,-99.99,,,0.00,Acu-Link.com,2013-06-07 06:06:00,
2013-06-07 02:21:00,73.9,71.4,29.56,SW,225,4.7,-999.0,92,-99.99,,,0.00,Acu-Link.com,2013-06-07 06:21:00,
2013-06-07 02:36:00,73.8,71.3,29.56,West,270,2.7,-999.0,92,-99.99,,,0.00,Acu-Link.com,2013-06-07 06:36:00,
2013-06-07 02:52:00,73.8,71.3,29.56,West,270,6.3,-999.0,92,-99.99,,,0.00,Acu-Link.com,2013-06-07 06:52:00,
2013-06-07 03:07:00,73.6,71.1,29.56,NW,315,3.7,-999.0,92,-99.99,,,0.00,Acu-Link.com,2013-06-07 07:07:00,
2013-06-07 03:22:00,73.6,71.1,29.56,West,270,6.8,-999.0,92,-99.99,,,0.00,Acu-Link.com,2013-06-07 07:22:00,
2013-06-07 03:37:00,73.6,71.1,29.56,SSW,202,5.8,-999.0,92,-99.99,,,0.00,Acu-Link.com,2013-06-07 07:37:00,
2013-06-07 03:52:00,73.4,70.9,29.57,NNW,337,7.3,-999.0,92,-99.99,,,0.00,Acu-Link.com,2013-06-07 07:52:00,
2013-06-07 04:08:00,73.4,70.9,29.57,West,270,2.2,-999.0,92,-99.99,,,0.00,Acu-Link.com,2013-06-07 08:08:00,
2013-06-07 04:23:00,73.2,70.7,29.57,West,270,4.7,-999.0,92,-99.99,,,0.00,Acu-Link.com,2013-06-07 08:23:00,
2013-06-07 04:38:00,73.0,70.5,29.56,WSW,247,3.7,-999.0,92,-99.99,,,0.00,Acu-Link.com,2013-06-07 08:38:00,
2013-06-07 04:53:00,72.9,70.8,29.57,SSW,202,4.7,-999.0,93,-99.99,,,0.00,Acu-Link.com,2013-06-07 08:53:00,
2013-06-07 05:09:00,72.7,70.6,29.58,SSW,202,2.2,-999.0,93,-99.99,,,0.00,Acu-Link.com,2013-06-07 09:09:00,
2013-06-07 05:24:00,72.7,70.6,29.58,West,270,0.0,-999.0,93,-99.99,,,0.00,Acu-Link.com,2013-06-07 09:24:00,
2013-06-07 05:39:00,72.5,70.7,29.60,SSW,202,2.2,-999.0,94,-99.99,,,0.00,Acu-Link.com,2013-06-07 09:39:00,
2013-06-07 05:54:00,72.0,70.2,29.61,North,0,0.0,-999.0,94,-99.99,,,0.00,Acu-Link.com,2013-06-07 09:54:00,
2013-06-07 06:09:00,71.6,70.1,29.62,West,270,1.7,-999.0,95,-99.99,,,0.00,Acu-Link.com,2013-06-07 10:09:00,
2013-06-07 06:25:00,71.8,70.3,29.63,South,180,2.2,-999.0,95,-99.99,,,0.00,Acu-Link.com,2013-06-07 10:25:00,
2013-06-07 06:40:00,72.1,70.9,29.63,West,270,2.2,-999.0,96,-99.99,,,0.00,Acu-Link.com,2013-06-07 10:40:00,
2013-06-07 06:55:00,72.5,71.3,29.64,SSW,202,2.7,-999.0,96,-99.99,,,0.00,Acu-Link.com,2013-06-07 10:55:00,
2013-06-07 07:10:00,73.0,71.5,29.64,SSE,157,7.3,-999.0,95,-99.99,,,0.00,Acu-Link.com,2013-06-07 11:10:00,
2013-06-07 07:25:00,74.3,72.1,29.64,SSW,202,3.2,-999.0,93,-99.99,,,0.00,Acu-Link.com,2013-06-07 11:25:00,
2013-06-07 07:41:00,75.7,72.9,29.65,WSW,247,5.3,-999.0,91,-99.99,,,0.00,Acu-Link.com,2013-06-07 11:41:00,
2013-06-07 08:26:00,78.8,74.6,29.68,WSW,247,5.3,-999.0,87,-99.99,,,0.00,Acu-Link.com,2013-06-07 12:26:00,
2013-06-07 08:41:00,79.5,74.9,29.68,WNW,292,2.7,-999.0,86,-99.99,,,0.00,Acu-Link.com,2013-06-07 12:41:00,
2013-06-07 08:57:00,80.4,75.1,29.68,West,270,3.7,-999.0,84,-99.99,,,0.00,Acu-Link.com,2013-06-07 12:57:00,
2013-06-07 09:12:00,82.6,75.8,29.69,SSW,202,4.2,-999.0,80,-99.99,,,0.00,Acu-Link.com,2013-06-07 13:12:00,
2013-06-07 09:27:00,82.2,75.4,29.69,WSW,247,1.7,-999.0,80,-99.99,,,0.00,Acu-Link.com,2013-06-07 13:27:00,
2013-06-07 09:42:00,82.6,75.0,29.70,WSW,247,4.7,-999.0,78,-99.99,,,0.00,Acu-Link.com,2013-06-07 13:42:00,
2013-06-07 09:58:00,82.6,74.6,29.70,West,270,6.3,-999.0,77,-99.99,,,0.00,Acu-Link.com,2013-06-07 13:58:00,
2013-06-07 10:13:00,82.8,74.4,29.70,NW,315,2.2,-999.0,76,-99.99,,,0.00,Acu-Link.com,2013-06-07 14:13:00,
2013-06-07 10:28:00,83.7,74.5,29.70,West,270,3.7,-999.0,74,-99.99,,,0.00,Acu-Link.com,2013-06-07 14:28:00,
2013-06-07 10:43:00,84.6,74.6,29.71,North,0,2.7,-999.0,72,-99.99,,,0.00,Acu-Link.com,2013-06-07 14:43:00,
2013-06-07 10:58:00,85.3,74.8,29.70,SW,225,4.2,-999.0,71,-99.99,,,0.00,Acu-Link.com,2013-06-07 14:58:00,
2013-06-07 11:14:00,85.1,73.3,29.71,West,270,4.2,-999.0,68,-99.99,,,0.00,Acu-Link.com,2013-06-07 15:14:00,
2013-06-07 11:29:00,86.4,73.7,29.71,WSW,247,4.2,-999.0,66,-99.99,,,0.00,Acu-Link.com,2013-06-07 15:29:00,
2013-06-07 11:44:00,85.8,74.0,29.71,NNW,337,2.7,-999.0,68,-99.99,,,0.00,Acu-Link.com,2013-06-07 15:44:00,
2013-06-07 11:59:00,87.3,73.1,29.71,West,270,3.2,-999.0,63,-99.99,,,0.00,Acu-Link.com,2013-06-07 15:59:00,
2013-06-07 12:14:00,87.4,73.2,29.71,SW,225,6.3,-999.0,63,-99.99,,,0.00,Acu-Link.com,2013-06-07 16:14:00,
2013-06-07 12:30:00,88.9,73.2,29.70,SW,225,4.7,-999.0,60,-99.99,,,0.00,Acu-Link.com,2013-06-07 16:30:00,
2013-06-07 12:45:00,88.9,73.7,29.70,SE,135,1.1,-999.0,61,-99.99,,,0.00,Acu-Link.com,2013-06-07 16:45:00,
2013-06-07 13:00:00,90.1,73.8,29.70,SW,225,1.7,-999.0,59,-99.99,,,0.00,Acu-Link.com,2013-06-07 17:00:00,
2013-06-07 13:15:00,90.0,73.2,29.70,West,270,7.3,-999.0,58,-99.99,,,0.00,Acu-Link.com,2013-06-07 17:15:00,
2013-06-07 13:30:00,88.5,72.8,29.69,SSW,202,3.7,-999.0,60,-99.99,,,0.00,Acu-Link.com,2013-06-07 17:30:00,
2013-06-07 13:46:00,89.6,73.8,29.69,NE,45,2.2,-999.0,60,-99.99,,,0.00,Acu-Link.com,2013-06-07 17:46:00,
2013-06-07 14:01:00,90.1,73.3,29.68,West,270,4.7,-999.0,58,-99.99,,,0.00,Acu-Link.com,2013-06-07 18:01:00,
2013-06-07 14:31:00,89.4,73.1,29.68,West,270,4.2,-999.0,59,-99.99,,,0.00,Acu-Link.com,2013-06-07 18:31:00,
2013-06-07 14:47:00,89.2,73.0,29.67,West,270,5.3,-999.0,59,-99.99,,,0.00,Acu-Link.com,2013-06-07 18:47:00,
2013-06-07 15:02:00,90.5,73.7,29.67,SSW,202,7.3,-999.0,58,-99.99,,,0.00,Acu-Link.com,2013-06-07 19:02:00,
2013-06-07 15:17:00,89.4,73.1,29.67,WSW,247,2.2,-999.0,59,-99.99,,,0.00,Acu-Link.com,2013-06-07 19:17:00,
2013-06-07 15:32:00,88.7,72.5,29.68,WNW,292,3.2,-999.0,59,-99.99,,,0.00,Acu-Link.com,2013-06-07 19:32:00,
2013-06-07 15:47:00,89.1,73.4,29.67,WSW,247,4.2,-999.0,60,-99.99,,,0.00,Acu-Link.com,2013-06-07 19:47:00,
2013-06-07 16:18:00,87.3,72.7,29.68,West,270,6.3,-999.0,62,-99.99,,,0.00,Acu-Link.com,2013-06-07 20:18:00,
2013-06-07 16:33:00,87.3,72.2,29.67,West,270,4.7,-999.0,61,-99.99,,,0.00,Acu-Link.com,2013-06-07 20:33:00,
2013-06-07 16:48:00,87.8,72.6,29.68,WNW,292,5.3,-999.0,61,-99.99,,,0.00,Acu-Link.com,2013-06-07 20:48:00,
2013-06-07 17:19:00,88.9,73.2,29.68,West,270,5.3,-999.0,60,-99.99,,,0.00,Acu-Link.com,2013-06-07 21:19:00,
2013-06-07 17:34:00,89.1,73.9,29.69,SSW,202,4.2,-999.0,61,-99.99,,,0.00,Acu-Link.com,2013-06-07 21:34:00,
2013-06-07 17:49:00,88.9,73.2,29.68,WSW,247,6.3,-999.0,60,-99.99,,,0.00,Acu-Link.com,2013-06-07 21:49:00,
2013-06-07 18:04:00,87.4,74.2,29.68,West,270,4.2,-999.0,65,-99.99,,,0.00,Acu-Link.com,2013-06-07 22:04:00,
2013-06-07 18:35:00,88.7,74.5,29.68,WNW,292,4.2,-999.0,63,-99.99,,,0.00,Acu-Link.com,2013-06-07 22:35:00,
2013-06-07 19:05:00,88.7,74.5,29.68,West,270,5.8,-999.0,63,-99.99,,,0.00,Acu-Link.com,2013-06-07 23:05:00,
2013-06-07 19:20:00,88.5,73.8,29.69,SSE,157,2.2,-999.0,62,-99.99,,,0.00,Acu-Link.com,2013-06-07 23:20:00,
2013-06-07 19:51:00,88.3,72.6,29.71,WSW,247,3.2,-999.0,60,-99.99,,,0.00,Acu-Link.com,2013-06-07 23:51:00,
2013-06-07 20:21:00,84.9,72.2,29.70,WSW,247,2.7,-999.0,66,-99.99,,,0.00,Acu-Link.com,2013-06-08 00:21:00,
2013-06-07 20:52:00,82.8,73.2,29.70,West,270,2.2,-999.0,73,-99.99,,,0.00,Acu-Link.com,2013-06-08 00:52:00,
2013-06-07 21:07:00,81.9,73.6,29.72,SSE,157,2.2,-999.0,76,-99.99,,,0.00,Acu-Link.com,2013-06-08 01:07:00,
2013-06-07 21:22:00,81.3,73.0,29.73,SW,225,3.7,-999.0,76,-99.99,,,0.00,Acu-Link.com,2013-06-08 01:22:00,
2013-06-07 21:37:00,80.8,72.9,29.73,WSW,247,1.7,-999.0,77,-99.99,,,0.00,Acu-Link.com,2013-06-08 01:37:00,
2013-06-07 21:52:00,80.4,72.9,29.72,WNW,292,2.7,-999.0,78,-99.99,,,0.00,Acu-Link.com,2013-06-08 01:52:00,
2013-06-07 22:08:00,80.1,72.6,29.72,NNW,337,2.7,-999.0,78,-99.99,,,0.00,Acu-Link.com,2013-06-08 02:08:00,
2013-06-07 22:23:00,79.7,73.3,29.74,West,270,1.7,-999.0,81,-99.99,,,0.00,Acu-Link.com,2013-06-08 02:23:00,
2013-06-07 22:38:00,79.0,74.1,29.75,ESE,112,0.0,-999.0,85,-99.99,,,0.00,Acu-Link.com,2013-06-08 02:38:00,
2013-06-07 23:08:00,78.3,73.4,29.75,NW,315,2.2,-999.0,85,-99.99,,,0.00,Acu-Link.com,2013-06-08 03:08:00,
2013-06-07 23:24:00,77.9,73.0,29.76,West,270,1.7,-999.0,85,-99.99,,,0.00,Acu-Link.com,2013-06-08 03:24:00,
2013-06-07 23:39:00,77.5,73.3,29.76,West,270,0.0,-999.0,87,-99.99,,,0.00,Acu-Link.com,2013-06-08 03:39:00,
2013-06-07 23:54:00,77.0,73.2,29.76,West,270,0.0,-999.0,88,-99.99,,,0.00,Acu-Link.com,2013-06-08 03:54:00,